Time;durP1;ratioP1;P1;durP2;ratioP2;P2;SDS_P1;SDS_P2;PMS_P1;PMS_P2;Temp;Humidity;BMP_temperature;BMP_pressure;BME280_temperature;BME280_humidity;BME280_pressure;Samples;Min_cycle;Max_cycle;Signal;HPM_P1;HPM_P2
2021/01/04 00:00:48;;;;;;;11.60;4.87;;;;;;;5.56;100.00;102025.09;1806464;79;26229;-81
2021/01/04 00:03:36;;;;;;;9.17;4.40;;;;;;;5.55;100.00;102021.49;1806599;79;26275;-80
2021/01/04 00:06:34;;;;;;;6.00;3.50;;;;;;;5.45;100.00;102019.22;1805986;79;26220;-83
2021/01/04 00:09:12;;;;;;;6.30;4.60;;;;;;;5.50;100.00;102023.54;1806272;79;26227;-82
2021/01/04 00:11:49;;;;;;;8.03;4.73;;;;;;;5.52;100.00;102019.16;1805413;79;26224;-81
2021/01/04 00:14:45;;;;;;;6.90;4.63;;;;;;;5.48;100.00;102024.28;1806339;79;26263;-80
2021/01/04 00:17:20;;;;;;;7.80;4.20;;;;;;;5.56;100.00;102029.23;1803910;79;26618;-80
2021/01/04 00:19:54;;;;;;;6.17;4.13;;;;;;;5.59;100.00;102032.91;1805688;79;26787;-81
2021/01/04 00:22:28;;;;;;;6.30;3.83;;;;;;;5.58;100.00;102031.22;1806219;78;26576;-82
2021/01/04 00:25:06;;;;;;;8.10;4.20;;;;;;;5.58;100.00;102034.81;1806417;79;26220;-81
2021/01/04 00:27:39;;;;;;;6.23;3.90;;;;;;;5.44;100.00;102029.08;1806362;79;26338;-81
2021/01/04 00:30:15;;;;;;;5.07;3.30;;;;;;;5.43;100.00;102030.98;1806013;79;26269;-80
2021/01/04 00:32:46;;;;;;;5.97;3.90;;;;;;;5.38;100.00;102027.23;1806434;79;26224;-82
2021/01/04 00:35:19;;;;;;;6.70;4.07;;;;;;;5.42;100.00;102027.09;1806409;79;26244;-81
2021/01/04 00:38:15;;;;;;;4.93;3.60;;;;;;;5.32;100.00;102027.58;1806173;79;26737;-82
2021/01/04 00:40:54;;;;;;;6.60;3.37;;;;;;;5.33;100.00;102026.52;1805754;79;26297;-81
2021/01/04 00:43:27;;;;;;;6.83;3.30;;;;;;;5.36;100.00;102021.09;1805839;79;26309;-82
2021/01/04 00:45:57;;;;;;;6.77;3.63;;;;;;;5.33;100.00;102022.39;1806075;79;26236;-80
2021/01/04 00:48:31;;;;;;;5.57;3.57;;;;;;;5.29;100.00;102024.43;1806253;78;26228;-79
2021/01/04 00:51:10;;;;;;;7.20;3.40;;;;;;;5.32;100.00;102022.07;1805817;79;26725;-81
2021/01/04 00:53:44;;;;;;;3.80;3.10;;;;;;;5.20;100.00;102025.75;1806088;79;26294;-81
2021/01/04 00:56:46;;;;;;;7.40;3.03;;;;;;;5.26;100.00;102022.94;1806148;79;26215;-81
2021/01/04 00:59:28;;;;;;;6.03;3.13;;;;;;;5.25;100.00;102025.94;1796704;79;26659;-79
2021/01/04 01:02:23;;;;;;;6.10;3.07;;;;;;;5.24;100.00;102016.83;1806291;79;26223;-80
2021/01/04 01:05:00;;;;;;;5.03;3.20;;;;;;;5.15;100.00;102018.16;1805504;79;26289;-79
2021/01/04 01:07:54;;;;;;;6.10;3.60;;;;;;;5.21;100.00;102025.55;1806173;79;26243;-79
2021/01/04 01:10:27;;;;;;;7.43;3.30;;;;;;;5.28;100.00;102016.69;1805220;79;26299;-80
2021/01/04 01:13:00;;;;;;;4.20;3.20;;;;;;;5.30;100.00;102013.20;1806273;79;26314;-80
2021/01/04 01:15:33;;;;;;;5.53;3.33;;;;;;;5.29;100.00;102015.64;1805988;79;26313;-81
2021/01/04 01:18:11;;;;;;;5.53;3.67;;;;;;;5.31;100.00;102022.28;1806236;79;26290;-80
2021/01/04 01:20:44;;;;;;;5.63;3.50;;;;;;;5.34;100.00;102019.10;1806217;79;26701;-81
2021/01/04 01:23:14;;;;;;;5.50;3.00;;;;;;;5.28;100.00;102017.22;1806286;78;26765;-81
2021/01/04 01:25:48;;;;;;;5.80;3.10;;;;;;;5.29;100.00;102016.16;1806248;79;26298;-81
2021/01/04 01:28:39;;;;;;;6.13;3.57;;;;;;;5.28;100.00;102013.09;1806277;79;26778;-81
2021/01/04 01:31:34;;;;;;;5.60;2.97;;;;;;;5.28;100.00;102014.47;1805352;79;26313;-80
2021/01/04 01:34:16;;;;;;;5.30;3.60;;;;;;;5.20;100.00;102017.49;1806132;79;26294;-82
2021/01/04 01:36:53;;;;;;;4.87;3.43;;;;;;;5.20;100.00;102019.72;1806077;79;26208;-80
2021/01/04 01:40:15;;;;;;;6.07;3.73;;;;;;;5.15;100.00;102022.28;1804964;79;26724;-81
2021/01/04 01:42:59;;;;;;;7.40;3.70;;;;;;;5.08;100.00;102028.90;1804248;79;26667;-80
2021/01/04 01:45:32;;;;;;;7.37;4.07;;;;;;;5.08;100.00;102024.23;1806132;79;26735;-81
2021/01/04 01:48:05;;;;;;;5.50;3.33;;;;;;;5.05;100.00;102023.28;1805942;79;26745;-80
2021/01/04 01:50:40;;;;;;;4.20;2.93;;;;;;;5.03;100.00;102023.52;1806009;77;26261;-81
2021/01/04 01:53:15;;;;;;;7.73;3.40;;;;;;;5.07;100.00;102023.92;1805823;79;26282;-80
2021/01/04 01:56:02;;;;;;;5.60;3.13;;;;;;;5.04;100.00;102026.59;1805913;79;26655;-80
2021/01/04 01:58:58;;;;;;;5.40;2.83;;;;;;;5.00;100.00;102025.34;1806298;79;26663;-80
2021/01/04 02:01:35;;;;;;;7.63;3.40;;;;;;;4.95;100.00;102029.28;1806210;79;26683;-81
2021/01/04 02:04:08;;;;;;;5.03;3.27;;;;;;;4.99;100.00;102028.31;1806242;79;26220;-80
2021/01/04 02:07:11;;;;;;;4.53;2.97;;;;;;;4.94;100.00;102030.88;1806058;79;26231;-79
2021/01/04 02:09:48;;;;;;;4.60;3.37;;;;;;;4.89;100.00;102030.15;1806197;79;26761;-80
2021/01/04 02:12:24;;;;;;;7.27;2.70;;;;;;;4.78;100.00;102032.23;1806239;79;26223;-81
2021/01/04 02:15:01;;;;;;;4.97;3.13;;;;;;;4.73;100.00;102034.78;1806191;79;26218;-81
2021/01/04 02:17:46;;;;;;;6.40;3.17;;;;;;;4.77;100.00;102032.43;1806123;79;26673;-81
2021/01/04 02:20:29;;;;;;;6.70;3.17;;;;;;;4.61;100.00;102031.02;1805827;79;26650;-81
2021/01/04 02:23:09;;;;;;;4.70;3.10;;;;;;;4.55;100.00;102028.59;1804745;78;26256;-82
2021/01/04 02:25:42;;;;;;;5.03;2.60;;;;;;;4.55;100.00;102024.47;1806061;79;26748;-81
2021/01/04 02:28:15;;;;;;;6.87;2.80;;;;;;;4.50;100.00;102035.80;1806168;79;26403;-82
2021/01/04 02:30:45;;;;;;;5.07;2.83;;;;;;;4.58;100.00;102031.43;1806112;79;26228;-81
2021/01/04 02:33:18;;;;;;;8.57;3.20;;;;;;;4.51;100.00;102036.13;1806247;79;26659;-82
2021/01/04 02:35:50;;;;;;;5.87;2.80;;;;;;;4.53;100.00;102034.02;1806156;79;26220;-81
2021/01/04 02:38:23;;;;;;;7.97;2.80;;;;;;;4.59;100.00;102035.88;1806243;79;26217;-82
2021/01/04 02:40:53;;;;;;;6.17;3.10;;;;;;;4.69;100.00;102032.68;1806108;79;26227;-81
2021/01/04 02:43:23;;;;;;;5.27;2.90;;;;;;;4.69;100.00;102041.78;1806118;79;26666;-81
2021/01/04 02:45:56;;;;;;;10.87;5.03;;;;;;;4.66;100.00;102037.25;1806254;79;26235;-81
2021/01/04 02:48:39;;;;;;;6.00;2.93;;;;;;;4.59;100.00;102044.98;1806037;79;26229;-81
2021/01/04 02:51:12;;;;;;;6.90;3.30;;;;;;;4.69;100.00;102042.31;1805924;77;26334;-82
2021/01/04 02:54:16;;;;;;;5.27;2.77;;;;;;;4.64;100.00;102036.61;1806087;79;26729;-82
2021/01/04 02:56:49;;;;;;;7.67;3.10;;;;;;;4.63;100.00;102030.25;1734484;79;26337;-81
2021/01/04 02:59:49;;;;;;;6.37;2.67;;;;;;;4.66;100.00;102033.97;1805727;79;26765;-82
2021/01/04 03:02:28;;;;;;;4.27;2.30;;;;;;;4.55;100.00;102036.00;1806074;79;26314;-82
2021/01/04 03:04:59;;;;;;;5.60;2.77;;;;;;;4.50;100.00;102028.92;1806120;79;26746;-81
2021/01/04 03:07:32;;;;;;;4.40;2.47;;;;;;;4.56;100.00;102030.83;1806076;79;26679;-81
2021/01/04 03:10:08;;;;;;;6.20;2.50;;;;;;;4.61;100.00;102026.89;1806216;79;26228;-82
2021/01/04 03:12:38;;;;;;;4.90;2.73;;;;;;;4.55;100.00;102023.09;1806224;79;26228;-81
2021/01/04 03:15:26;;;;;;;4.73;2.73;;;;;;;4.56;100.00;102022.04;1806266;79;26301;-82
2021/01/04 03:18:10;;;;;;;4.50;2.50;;;;;;;4.59;100.00;102033.98;1806240;79;26744;-81
2021/01/04 03:20:40;;;;;;;6.57;2.40;;;;;;;4.59;100.00;102033.13;1805486;79;26678;-81
2021/01/04 03:23:11;;;;;;;4.63;2.70;;;;;;;4.62;100.00;102023.61;1806196;78;26291;-80
2021/01/04 03:25:45;;;;;;;5.57;2.70;;;;;;;4.62;100.00;102025.81;1806227;79;26294;-81
2021/01/04 03:28:21;;;;;;;6.57;2.60;;;;;;;4.61;100.00;102023.30;1806061;79;26232;-81
2021/01/04 03:30:51;;;;;;;5.13;2.60;;;;;;;4.56;100.00;102021.19;1806233;79;26306;-80
2021/01/04 03:33:21;;;;;;;6.60;2.47;;;;;;;4.62;100.00;102022.23;1806209;79;27050;-81
2021/01/04 03:35:52;;;;;;;4.17;2.40;;;;;;;4.62;100.00;102023.61;1806192;79;26298;-81
2021/01/04 03:38:22;;;;;;;4.90;2.50;;;;;;;4.69;100.00;102009.28;1806160;79;26268;-82
2021/01/04 03:40:52;;;;;;;5.70;2.53;;;;;;;4.69;100.00;102023.05;1806172;79;26358;-82
2021/01/04 03:43:22;;;;;;;5.87;2.30;;;;;;;4.62;100.00;102013.42;1806214;79;26690;-80
2021/01/04 03:45:52;;;;;;;5.37;2.53;;;;;;;4.64;100.00;102013.22;1806200;79;26232;-80
2021/01/04 03:48:22;;;;;;;4.27;2.20;;;;;;;4.68;100.00;102008.97;1806147;79;26310;-80
2021/01/04 03:50:53;;;;;;;4.80;1.90;;;;;;;4.69;100.00;102005.16;1806192;78;26282;-80
2021/01/04 03:53:24;;;;;;;3.23;2.20;;;;;;;4.60;100.00;102007.31;1806191;79;26224;-81
2021/01/04 03:55:53;;;;;;;8.33;2.50;;;;;;;4.57;100.00;102011.88;1806243;79;26632;-81
2021/01/04 03:58:23;;;;;;;6.20;2.33;;;;;;;4.48;100.00;102000.27;1806234;79;26683;-81
2021/01/04 04:00:53;;;;;;;6.23;2.40;;;;;;;4.39;100.00;101997.44;1806200;79;26217;-82
2021/01/04 04:03:23;;;;;;;6.03;2.23;;;;;;;4.33;100.00;101994.17;1806193;79;26768;-82
2021/01/04 04:05:53;;;;;;;4.20;2.00;;;;;;;4.29;100.00;101987.94;1806180;79;26879;-82
2021/01/04 04:08:23;;;;;;;6.50;2.50;;;;;;;4.19;100.00;101982.91;1806147;79;26660;-82
2021/01/04 04:10:53;;;;;;;4.40;2.30;;;;;;;4.18;100.00;101982.59;1806216;79;26655;-82
2021/01/04 04:13:23;;;;;;;5.83;2.20;;;;;;;4.20;100.00;101976.86;1806190;79;26217;-82
2021/01/04 04:15:53;;;;;;;3.93;2.13;;;;;;;4.10;100.00;101976.80;1806243;79;26635;-82
2021/01/04 04:18:24;;;;;;;5.87;2.40;;;;;;;4.10;100.00;101975.42;1806223;79;26743;-82
2021/01/04 04:20:54;;;;;;;3.90;2.00;;;;;;;4.13;100.00;101975.52;1806186;79;26219;-82
2021/01/04 04:23:24;;;;;;;5.27;2.50;;;;;;;4.20;100.00;101976.86;1806098;78;26248;-82
2021/01/04 04:25:53;;;;;;;5.20;1.90;;;;;;;4.33;100.00;101980.41;1806244;79;26267;-82
2021/01/04 04:28:23;;;;;;;4.33;1.83;;;;;;;4.29;100.00;101979.16;1806209;79;26310;-82
2021/01/04 04:30:54;;;;;;;5.63;1.73;;;;;;;4.27;100.00;101983.20;1806258;79;26232;-82
2021/01/04 04:33:24;;;;;;;4.40;2.27;;;;;;;4.30;100.00;101989.63;1806140;79;26297;-82
2021/01/04 04:35:54;;;;;;;3.13;1.80;;;;;;;4.23;100.00;101986.92;1806206;79;26290;-83
2021/01/04 04:38:24;;;;;;;3.57;1.87;;;;;;;4.22;100.00;101977.50;1806373;79;26236;-81
2021/01/04 04:40:54;;;;;;;3.40;1.63;;;;;;;4.29;100.00;101979.16;1806306;79;26228;-82
2021/01/04 04:43:30;;;;;;;5.20;2.10;;;;;;;4.36;100.00;101973.13;1806255;79;26286;-81
2021/01/04 04:46:03;;;;;;;4.00;1.80;;;;;;;4.36;100.00;101980.00;1806136;79;26240;-81
2021/01/04 04:48:46;;;;;;;3.47;1.80;;;;;;;4.46;100.00;101976.25;1806163;79;26718;-82
2021/01/04 04:52:08;;;;;;;5.10;2.20;;;;;;;4.40;100.00;101979.03;1805987;77;26665;-81
2021/01/04 04:54:58;;;;;;;5.63;2.20;;;;;;;4.44;100.00;101975.63;1799507;79;26228;-81
2021/01/04 04:58:04;;;;;;;2.50;1.57;;;;;;;4.48;100.00;101984.30;1806067;79;26647;-81
2021/01/04 05:00:41;;;;;;;4.47;1.63;;;;;;;4.61;100.00;101977.89;1794117;79;930743;-81
2021/01/04 05:03:19;;;;;;;5.17;1.47;;;;;;;4.59;100.00;101973.44;1805855;79;26753;-81
2021/01/04 05:06:10;;;;;;;5.53;2.37;;;;;;;4.52;100.00;101973.16;1805557;79;26668;-81
2021/01/04 05:08:55;;;;;;;6.70;1.93;;;;;;;4.52;100.00;101974.54;1805703;79;26647;-81
2021/01/04 05:11:28;;;;;;;3.43;1.60;;;;;;;4.50;100.00;101968.39;1806027;79;26208;-81
2021/01/04 05:13:58;;;;;;;2.80;1.50;;;;;;;4.53;100.00;101974.86;1805994;79;26216;-80
2021/01/04 05:16:32;;;;;;;2.70;1.77;;;;;;;4.53;100.00;101977.09;1806245;79;26228;-81
2021/01/04 05:19:17;;;;;;;3.73;1.63;;;;;;;4.50;100.00;101969.24;1804434;79;26426;-81
2021/01/04 05:22:23;;;;;;;4.27;1.60;;;;;;;4.56;100.00;101973.89;1805732;79;26216;-81
2021/01/04 05:25:17;;;;;;;4.60;1.73;;;;;;;4.51;100.00;101975.59;1804383;79;26228;-81
2021/01/04 05:28:05;;;;;;;3.93;1.53;;;;;;;4.47;100.00;101963.34;1805876;79;26361;-81
2021/01/04 05:31:02;;;;;;;5.00;1.60;;;;;;;4.51;100.00;101969.56;1805742;79;26331;-82
2021/01/04 05:34:05;;;;;;;5.83;1.60;;;;;;;4.55;100.00;101966.69;1805442;79;26773;-82
2021/01/04 05:36:54;;;;;;;5.33;1.50;;;;;;;4.63;100.00;101966.11;1806240;79;26298;-82
2021/01/04 05:39:30;;;;;;;3.37;1.60;;;;;;;4.68;100.00;101964.41;1806210;79;26639;-81
2021/01/04 05:42:16;;;;;;;3.17;1.43;;;;;;;4.69;100.00;101963.34;1805910;79;26301;-81
2021/01/04 05:45:08;;;;;;;5.20;1.60;;;;;;;4.59;100.00;101969.84;1805370;79;26656;-81
2021/01/04 05:48:00;;;;;;;3.10;1.70;;;;;;;4.73;100.00;101964.59;1806191;79;26764;-81
2021/01/04 05:50:34;;;;;;;4.50;1.90;;;;;;;4.77;100.00;101954.84;1806167;79;26235;-81
2021/01/04 05:53:04;;;;;;;2.77;1.50;;;;;;;4.74;100.00;101953.91;1806078;78;26275;-80
2021/01/04 05:55:34;;;;;;;3.97;1.63;;;;;;;4.78;100.00;101962.03;1806177;79;26639;-80
2021/01/04 05:58:16;;;;;;;3.63;1.40;;;;;;;4.70;100.00;101955.41;1806130;79;26275;-80
2021/01/04 06:00:47;;;;;;;5.20;1.80;;;;;;;4.78;100.00;101955.68;1806163;79;26212;-80
2021/01/04 06:03:20;;;;;;;3.67;1.47;;;;;;;4.72;100.00;101960.15;1806224;79;26691;-80
2021/01/04 06:05:52;;;;;;;3.83;1.63;;;;;;;4.68;100.00;101962.18;1806125;79;26223;-81
2021/01/04 06:08:26;;;;;;;4.40;1.67;;;;;;;4.64;100.00;101952.67;1806151;79;26223;-80
2021/01/04 06:11:05;;;;;;;4.07;1.30;;;;;;;4.64;100.00;101954.90;1806120;79;26282;-81
2021/01/04 06:13:40;;;;;;;6.03;1.80;;;;;;;4.65;100.00;101950.24;1806104;79;26733;-80
2021/01/04 06:16:12;;;;;;;5.43;1.90;;;;;;;4.57;100.00;101949.97;1806252;79;26270;-82
2021/01/04 06:18:46;;;;;;;5.60;1.60;;;;;;;4.53;100.00;101948.20;1806171;79;26244;-82
2021/01/04 06:21:32;;;;;;;3.07;1.10;;;;;;;4.56;100.00;101947.75;1806187;79;26236;-83
2021/01/04 06:24:04;;;;;;;3.90;1.60;;;;;;;4.66;100.00;101950.56;1805680;78;26789;-81
2021/01/04 06:26:34;;;;;;;2.63;1.30;;;;;;;4.63;100.00;101954.58;1806186;79;26236;-82
2021/01/04 06:29:07;;;;;;;6.47;1.90;;;;;;;4.55;100.00;101956.21;1806155;79;26236;-82
2021/01/04 06:31:41;;;;;;;3.43;1.67;;;;;;;4.56;100.00;101956.00;1806185;79;26236;-82
2021/01/04 06:34:24;;;;;;;4.40;1.50;;;;;;;4.49;100.00;101949.66;1806095;79;26215;-81
2021/01/04 06:36:57;;;;;;;3.60;1.63;;;;;;;4.45;100.00;101958.60;1806149;79;26239;-81
2021/01/04 06:39:30;;;;;;;3.43;1.80;;;;;;;4.55;100.00;101959.81;1806261;79;26714;-81
2021/01/04 06:42:12;;;;;;;7.17;1.67;;;;;;;4.57;100.00;101964.58;1806200;79;26313;-82
2021/01/04 06:44:45;;;;;;;4.47;1.67;;;;;;;4.59;100.00;101957.46;1806265;79;26313;-81
2021/01/04 06:47:37;;;;;;;4.63;2.00;;;;;;;4.66;100.00;101960.20;1806124;79;26651;-80
2021/01/04 06:50:11;;;;;;;4.37;1.43;;;;;;;4.68;100.00;101960.80;1805916;79;26643;-81
2021/01/04 06:53:27;;;;;;;7.83;1.70;;;;;;;4.68;100.00;101958.90;1806143;79;26228;-80
2021/01/04 06:56:09;;;;;;;4.07;1.80;;;;;;;4.53;100.00;101956.45;1806071;79;26687;-80
2021/01/04 06:59:31;;;;;;;4.03;1.50;;;;;;;4.50;100.00;101960.14;1804957;79;26664;-80
2021/01/04 07:02:26;;;;;;;3.17;1.83;;;;;;;4.49;100.00;101961.23;1767264;79;26216;-80
2021/01/04 07:05:28;;;;;;;6.17;1.70;;;;;;;4.64;100.00;101960.93;1806086;79;26291;-80
2021/01/04 07:08:13;;;;;;;5.23;2.10;;;;;;;4.64;100.00;101964.53;1778947;79;26243;-80
2021/01/04 07:10:57;;;;;;;5.10;2.10;;;;;;;4.65;100.00;101954.38;1806060;79;26753;-81
2021/01/04 07:13:38;;;;;;;4.83;1.80;;;;;;;4.64;100.00;101954.05;1805922;79;26228;-80
2021/01/04 07:16:19;;;;;;;5.13;1.80;;;;;;;4.63;100.00;101958.71;1806197;79;26332;-80
2021/01/04 07:18:53;;;;;;;6.90;1.70;;;;;;;4.71;100.00;101955.70;1805084;79;26312;-81
2021/01/04 07:21:42;;;;;;;6.00;1.77;;;;;;;4.66;100.00;101959.67;1805689;79;26262;-81
2021/01/04 07:24:21;;;;;;;3.60;1.50;;;;;;;4.71;100.00;101948.82;1806051;78;26256;-81
2021/01/04 07:26:57;;;;;;;3.87;1.80;;;;;;;4.67;100.00;101947.57;1805956;79;26301;-80
2021/01/04 07:29:44;;;;;;;3.33;1.90;;;;;;;4.69;100.00;101951.49;1806064;79;26240;-81
2021/01/04 07:32:18;;;;;;;6.17;1.80;;;;;;;4.78;100.00;101959.81;1806048;79;26950;-81
2021/01/04 07:34:52;;;;;;;7.77;2.57;;;;;;;4.77;100.00;101958.97;1806099;79;26220;-81
2021/01/04 07:37:33;;;;;;;4.20;1.53;;;;;;;4.63;100.00;101963.36;1806149;79;26216;-80
2021/01/04 07:40:11;;;;;;;3.97;1.87;;;;;;;4.66;100.00;101965.17;1806079;79;26294;-82
2021/01/04 07:42:57;;;;;;;5.80;1.90;;;;;;;4.68;100.00;101964.94;1805302;79;26270;-81
2021/01/04 07:45:34;;;;;;;5.30;1.60;;;;;;;4.73;100.00;101963.75;1805444;79;26302;-83
2021/01/04 07:48:22;;;;;;;3.27;1.70;;;;;;;4.65;100.00;101964.00;1804853;79;26319;-81
2021/01/04 07:51:25;;;;;;;7.60;1.90;;;;;;;4.54;100.00;101964.98;1804782;79;26227;-82
2021/01/04 07:54:30;;;;;;;7.77;2.33;;;;;;;4.61;100.00;101969.11;1805494;77;26676;-82
2021/01/04 07:57:33;;;;;;;5.20;1.67;;;;;;;4.63;100.00;101967.48;1805601;79;26236;-81
2021/01/04 08:00:29;;;;;;;4.20;1.60;;;;;;;4.72;100.00;101967.56;1806125;79;26227;-80
2021/01/04 08:03:28;;;;;;;3.97;1.83;;;;;;;4.70;100.00;101966.42;1805607;79;26640;-80
2021/01/04 08:06:12;;;;;;;3.97;1.80;;;;;;;4.69;100.00;101970.23;1806136;79;26228;-80
2021/01/04 08:08:49;;;;;;;6.47;1.50;;;;;;;4.73;100.00;101975.61;1805090;79;26655;-80
2021/01/04 08:11:59;;;;;;;5.57;1.90;;;;;;;4.73;100.00;101985.23;1806303;79;26239;-82
2021/01/04 08:14:49;;;;;;;7.83;1.80;;;;;;;4.73;100.00;101981.64;1805124;79;27904;-82
2021/01/04 08:17:29;;;;;;;4.23;1.63;;;;;;;4.87;100.00;101984.12;1806166;79;26687;-81
2021/01/04 08:20:01;;;;;;;5.97;1.93;;;;;;;4.92;100.00;101982.90;1806351;79;26197;-82
2021/01/04 08:23:21;;;;;;;3.57;1.70;;;;;;;4.90;100.00;101985.58;1806279;78;26243;-85
2021/01/04 08:25:56;;;;;;;5.17;1.73;;;;;;;4.87;100.00;101984.12;1783293;79;26231;-81
2021/01/04 08:28:35;;;;;;;3.07;1.63;;;;;;;4.93;100.00;101987.34;1806284;79;26639;-80
2021/01/04 08:31:09;;;;;;;4.27;1.67;;;;;;;5.00;100.00;101991.46;1806338;79;26320;-80
2021/01/04 08:33:47;;;;;;;4.77;1.77;;;;;;;4.99;100.00;101988.38;1805734;79;26220;-82
2021/01/04 08:36:23;;;;;;;5.53;1.80;;;;;;;5.09;100.00;101985.16;1806406;79;26240;-81
2021/01/04 08:39:06;;;;;;;6.53;1.90;;;;;;;5.12;100.00;101990.22;1806199;79;26639;-80
2021/01/04 08:41:38;;;;;;;5.73;1.67;;;;;;;5.11;100.00;101997.62;1806294;79;26298;-82
2021/01/04 08:44:18;;;;;;;5.57;1.60;;;;;;;5.18;100.00;101996.23;1806351;79;26243;-82
2021/01/04 08:46:49;;;;;;;3.97;1.47;;;;;;;5.19;100.00;101991.85;1806292;79;26212;-82
2021/01/04 08:49:27;;;;;;;10.27;2.23;;;;;;;5.19;100.00;101992.38;1806415;79;26232;-80
2021/01/04 08:51:57;;;;;;;5.30;1.67;;;;;;;5.30;100.00;101994.44;1806328;79;26303;-82
2021/01/04 08:54:30;;;;;;;8.00;1.80;;;;;;;5.33;100.00;101994.84;1806335;77;26278;-81
2021/01/04 08:57:15;;;;;;;5.07;1.60;;;;;;;5.41;100.00;101997.31;1806309;79;26687;-80
2021/01/04 08:59:57;;;;;;;5.37;1.70;;;;;;;5.35;100.00;101991.31;1806571;79;26225;-81
2021/01/04 09:02:37;;;;;;;3.00;1.77;;;;;;;5.47;100.00;101992.84;1806491;79;26368;-79
2021/01/04 09:05:11;;;;;;;2.93;1.77;;;;;;;5.49;100.00;101993.44;1806318;79;26217;-80
2021/01/04 09:08:00;;;;;;;4.97;2.10;;;;;;;5.55;100.00;101995.84;1806586;79;26667;-85
2021/01/04 09:10:39;;;;;;;4.53;2.03;;;;;;;5.58;100.00;101993.48;1806520;79;26802;-81
2021/01/04 09:13:12;;;;;;;5.17;1.77;;;;;;;5.60;100.00;101996.02;1806309;79;26648;-80
2021/01/04 09:15:43;;;;;;;4.97;1.70;;;;;;;5.60;100.00;101994.11;1806484;79;26663;-83
2021/01/04 09:18:36;;;;;;;1.97;1.30;;;;;;;5.63;100.00;102001.92;1806869;79;26227;-83
2021/01/04 09:21:11;;;;;;;3.23;1.53;;;;;;;5.63;100.00;102001.92;1800459;79;26624;-84
2021/01/04 09:23:42;;;;;;;6.13;2.13;;;;;;;5.66;100.00;101989.06;1804995;78;26337;-86
2021/01/04 09:26:16;;;;;;;2.80;1.50;;;;;;;5.68;100.00;101996.58;1806710;79;26306;-88
2021/01/04 09:28:49;;;;;;;8.70;1.40;;;;;;;5.67;100.00;101996.27;1806681;79;26306;-89
2021/01/04 09:31:20;;;;;;;5.17;1.50;;;;;;;5.71;100.00;102000.79;1806714;79;26298;-85
2021/01/04 09:33:52;;;;;;;5.43;1.83;;;;;;;5.72;100.00;101990.08;1806662;79;26231;-83
2021/01/04 09:36:24;;;;;;;4.47;1.63;;;;;;;5.71;100.00;101998.03;1806454;79;26740;-83
2021/01/04 09:39:05;;;;;;;5.50;1.77;;;;;;;5.70;100.00;101992.20;1806541;79;26227;-85
2021/01/04 09:41:36;;;;;;;2.33;1.40;;;;;;;5.71;100.00;101994.75;1806615;79;26742;-82
2021/01/04 09:44:11;;;;;;;7.00;1.70;;;;;;;5.74;100.00;101993.44;1806667;79;26232;-83
2021/01/04 09:46:50;;;;;;;2.93;1.50;;;;;;;5.77;100.00;102002.66;1806412;79;26298;-81
2021/01/04 09:49:23;;;;;;;4.17;1.30;;;;;;;5.75;100.00;102000.12;1806479;79;26220;-85
2021/01/04 09:51:56;;;;;;;3.27;1.67;;;;;;;5.81;100.00;102000.61;1806454;79;26244;-81
2021/01/04 09:54:30;;;;;;;4.80;1.50;;;;;;;5.85;100.00;102005.98;1806573;79;26312;-85
2021/01/04 09:57:07;;;;;;;2.53;1.33;;;;;;;5.90;100.00;102003.95;1806485;79;26656;-84
2021/01/04 09:59:36;;;;;;;4.73;1.97;;;;;;;5.92;100.00;102003.17;1806068;79;26224;-85
2021/01/04 10:02:08;;;;;;;3.73;1.60;;;;;;;5.94;100.00;102008.80;1806553;79;26212;-85
2021/01/04 10:04:42;;;;;;;4.60;1.80;;;;;;;5.99;100.00;102003.95;1806554;79;26290;-86
2021/01/04 10:07:15;;;;;;;2.90;1.17;;;;;;;5.94;100.00;102008.80;1806779;79;26647;-84
2021/01/04 10:09:49;;;;;;;3.00;1.60;;;;;;;5.98;100.00;102005.58;1806418;79;26223;-85
2021/01/04 10:12:23;;;;;;;5.30;1.70;;;;;;;5.99;100.00;101996.23;1806303;79;26715;-85
2021/01/04 10:14:55;;;;;;;2.93;1.40;;;;;;;6.00;100.00;102000.66;1806344;79;26667;-84
2021/01/04 10:17:28;;;;;;;3.30;1.40;;;;;;;6.06;100.00;102007.50;1806458;79;26267;-86
2021/01/04 10:20:01;;;;;;;4.93;1.60;;;;;;;6.07;100.00;102000.92;1806349;79;26203;-83
2021/01/04 10:22:34;;;;;;;3.90;1.40;;;;;;;6.07;100.00;101999.55;1806421;78;26216;-85
2021/01/04 10:25:09;;;;;;;4.73;1.40;;;;;;;6.16;100.00;102003.67;1806418;79;26275;-85
2021/01/04 10:27:38;;;;;;;4.63;1.70;;;;;;;6.19;100.00;101993.58;1806160;79;26627;-85
2021/01/04 10:30:13;;;;;;;5.67;1.80;;;;;;;6.18;100.00;102001.55;1806467;79;26686;-84
2021/01/04 10:32:44;;;;;;;3.37;1.80;;;;;;;6.22;100.00;101993.64;1806310;79;26769;-83
2021/01/04 10:35:21;;;;;;;3.60;1.53;;;;;;;6.25;100.00;102001.45;1806464;79;26753;-84
2021/01/04 10:37:54;;;;;;;3.93;1.60;;;;;;;6.24;100.00;101988.23;1806366;79;26683;-84
2021/01/04 10:40:26;;;;;;;4.90;1.40;;;;;;;6.22;100.00;101983.98;1806208;79;26289;-83
2021/01/04 10:43:05;;;;;;;3.80;1.37;;;;;;;6.21;100.00;101996.94;1806417;79;26768;-81
2021/01/04 10:45:38;;;;;;;4.67;1.53;;;;;;;6.25;100.00;101995.94;1806341;79;26377;-83
2021/01/04 10:48:13;;;;;;;3.20;1.57;;;;;;;6.26;100.00;101991.58;1806361;79;26655;-82
2021/01/04 10:50:46;;;;;;;3.97;1.70;;;;;;;6.30;100.00;101990.58;1806236;79;26795;-83
2021/01/04 10:53:28;;;;;;;5.33;2.47;;;;;;;6.28;100.00;101997.73;1806330;79;26718;-84
2021/01/04 10:56:05;;;;;;;5.57;2.00;;;;;;;6.28;100.00;101999.11;1806295;77;26698;-81
2021/01/04 10:58:38;;;;;;;4.67;1.83;;;;;;;6.27;100.00;101989.67;1804116;79;26668;-81
2021/01/04 11:01:11;;;;;;;5.07;1.90;;;;;;;6.25;100.00;101991.27;1806297;79;26670;-80
2021/01/04 11:03:46;;;;;;;6.17;1.60;;;;;;;6.32;100.00;101991.21;1806266;79;26651;-79
2021/01/04 11:06:20;;;;;;;5.07;1.80;;;;;;;6.24;100.00;101988.23;1806346;79;26687;-79
2021/01/04 11:08:51;;;;;;;4.90;1.53;;;;;;;6.19;100.00;101989.44;1806296;79;26286;-78
2021/01/04 11:11:31;;;;;;;7.30;1.87;;;;;;;6.25;100.00;101985.75;1806246;79;26209;-77
2021/01/04 11:14:09;;;;;;;3.80;1.50;;;;;;;6.25;100.00;101980.77;1806162;79;26290;-79
2021/01/04 11:16:46;;;;;;;4.67;1.57;;;;;;;6.24;100.00;101990.98;1806273;79;26228;-79
2021/01/04 11:19:27;;;;;;;4.97;1.87;;;;;;;6.28;100.00;101977.03;1806335;79;26243;-81
2021/01/04 11:21:56;;;;;;;4.53;1.40;;;;;;;6.32;100.00;101979.64;1806428;79;26413;-84
2021/01/04 11:24:26;;;;;;;3.63;1.60;;;;;;;6.34;100.00;101976.63;1806483;78;26275;-80
2021/01/04 11:26:56;;;;;;;4.93;1.60;;;;;;;6.32;100.00;101978.27;1806386;79;26252;-84
2021/01/04 11:29:27;;;;;;;4.30;1.77;;;;;;;6.31;100.00;101981.24;1806713;79;26314;-85
2021/01/04 11:31:57;;;;;;;6.73;1.67;;;;;;;6.37;100.00;101983.09;1807529;79;26231;-82
2021/01/04 11:34:27;;;;;;;2.77;1.30;;;;;;;6.36;100.00;101980.87;1807424;79;26275;-82
2021/01/04 11:36:57;;;;;;;5.53;1.53;;;;;;;6.37;100.00;101978.95;1807160;79;26255;-82
2021/01/04 11:39:27;;;;;;;5.90;1.67;;;;;;;6.38;100.00;101975.09;1807012;79;26780;-82
2021/01/04 11:41:58;;;;;;;6.07;1.97;;;;;;;6.34;100.00;101976.10;1807162;79;26223;-82
2021/01/04 11:44:30;;;;;;;7.23;1.87;;;;;;;6.42;100.00;101969.98;1806947;79;26220;-82
2021/01/04 11:47:00;;;;;;;4.23;2.00;;;;;;;6.44;100.00;101968.67;1806851;79;26313;-81
2021/01/04 11:49:30;;;;;;;6.23;2.07;;;;;;;6.42;100.00;101967.23;1807162;79;26816;-82
2021/01/04 11:52:00;;;;;;;6.17;2.77;;;;;;;6.38;100.00;101959.92;1806942;79;26240;-82
2021/01/04 11:54:30;;;;;;;4.57;2.23;;;;;;;6.38;100.00;101954.40;1806675;79;26769;-82
2021/01/04 11:57:00;;;;;;;7.70;2.07;;;;;;;6.33;100.00;101961.17;1806365;77;26259;-82
2021/01/04 11:59:31;;;;;;;6.40;2.00;;;;;;;6.27;100.00;101964.30;1806461;79;26231;-82
2021/01/04 12:02:02;;;;;;;4.93;2.00;;;;;;;6.24;100.00;101958.41;1806443;79;26663;-83
2021/01/04 12:04:32;;;;;;;6.57;2.30;;;;;;;6.22;100.00;101960.01;1806523;79;26233;-83
2021/01/04 12:07:02;;;;;;;7.30;1.80;;;;;;;6.26;100.00;101965.91;1806371;79;26776;-82
2021/01/04 12:09:32;;;;;;;4.13;2.00;;;;;;;6.30;100.00;101962.45;1806493;79;26321;-82
2021/01/04 12:12:02;;;;;;;6.43;2.70;;;;;;;6.36;100.00;101961.55;1806489;79;26330;-82
2021/01/04 12:14:34;;;;;;;4.77;2.13;;;;;;;6.33;100.00;101959.80;1806399;79;26697;-85